Time;durP1;ratioP1;P1;durP2;ratioP2;P2;SDS_P1;SDS_P2;PMS_P1;PMS_P2;Temp;Humidity;BMP_temperature;BMP_pressure;BME280_temperature;BME280_humidity;BME280_pressure;Samples;Min_cycle;Max_cycle;Signal;HPM_P1;HPM_P2
2022/10/20 04:22:51;;;;;;;7.30;4.00;;;;;;;11.53;100.00;100253.97;5163309;27;20364;-65
2022/10/20 04:25:17;;;;;;;8.68;4.50;;;;;;;11.54;100.00;100265.47;5130046;27;20173;-66
2022/10/20 04:27:42;;;;;;;6.03;3.47;;;;;;;11.53;100.00;100253.97;5130020;27;20035;-66
2022/10/20 04:30:09;;;;;;;6.30;3.88;;;;;;;11.55;100.00;100256.47;5129578;27;20035;-65
2022/10/20 04:32:34;;;;;;;11.82;4.60;;;;;;;11.46;100.00;100261.03;5130061;27;20059;-65
2022/10/20 04:34:59;;;;;;;8.60;3.95;;;;;;;11.50;100.00;100248.19;5129791;27;20120;-66
2022/10/20 04:37:25;;;;;;;7.35;4.35;;;;;;;11.54;100.00;100260.97;5129613;27;20115;-66
2022/10/20 04:39:50;;;;;;;7.13;4.13;;;;;;;11.42;100.00;100259.75;5128470;28;20047;-65
2022/10/20 04:42:17;;;;;;;6.32;4.25;;;;;;;11.44;100.00;100265.72;5129257;27;20039;-66
2022/10/20 04:44:42;;;;;;;6.15;4.18;;;;;;;11.49;100.00;100257.19;5129491;27;20043;-66
2022/10/20 04:47:08;;;;;;;6.78;4.10;;;;;;;11.44;100.00;100247.03;5129310;27;20380;-66
2022/10/20 04:49:33;;;;;;;5.60;3.78;;;;;;;11.39;100.00;100242.25;5129630;27;20031;-65
2022/10/20 04:51:59;;;;;;;7.70;4.63;;;;;;;11.35;100.00;100240.13;5129238;27;20039;-66
2022/10/20 04:54:24;;;;;;;8.88;3.95;;;;;;;11.38;100.00;100237.09;5129482;27;20043;-66
2022/10/20 04:56:50;;;;;;;7.90;4.03;;;;;;;11.34;100.00;100235.78;5129300;27;20040;-66
2022/10/20 04:59:15;;;;;;;6.18;4.55;;;;;;;11.20;100.00;100241.88;5129365;27;20031;-66
2022/10/20 05:01:41;;;;;;;9.52;4.28;;;;;;;11.16;100.00;100236.09;5128985;27;20047;-66
2022/10/20 05:04:06;;;;;;;4.82;3.10;;;;;;;11.22;100.00;100237.22;5129235;27;20066;-66
2022/10/20 05:06:32;;;;;;;7.85;4.78;;;;;;;11.19;100.00;100241.06;5129215;27;20160;-66
2022/10/20 05:08:59;;;;;;;7.65;4.63;;;;;;;11.21;100.00;100232.88;5129248;27;20147;-66
2022/10/20 05:11:26;;;;;;;6.50;4.40;;;;;;;11.17;100.00;100221.75;5128786;27;20032;-66
2022/10/20 05:13:52;;;;;;;11.40;4.87;;;;;;;11.23;100.00;100222.88;5129068;27;20544;-66
2022/10/20 05:16:18;;;;;;;6.97;4.35;;;;;;;11.26;100.00;100215.34;5128994;27;20035;-66
2022/10/20 05:18:44;;;;;;;7.13;4.30;;;;;;;11.20;100.00;100205.38;5129063;27;20498;-66
2022/10/20 05:21:13;;;;;;;8.15;4.25;;;;;;;11.24;100.00;100189.88;5128550;27;20035;-66
2022/10/20 05:23:39;;;;;;;5.13;3.38;;;;;;;11.21;100.00;100171.56;5128903;27;20043;-66
2022/10/20 05:26:07;;;;;;;7.68;4.15;;;;;;;11.24;100.00;100172.03;5128726;27;20411;-66
2022/10/20 05:28:32;;;;;;;5.35;3.75;;;;;;;11.17;100.00;100179.09;5128749;27;20437;-67
2022/10/20 05:31:06;;;;;;;7.22;4.20;;;;;;;11.02;100.00;100189.72;5128310;27;20058;-66
2022/10/20 05:33:32;;;;;;;6.60;3.55;;;;;;;11.04;100.00;100197.53;5119067;27;20070;-67
2022/10/20 05:35:58;;;;;;;6.35;4.07;;;;;;;11.02;100.00;100196.84;5114821;28;20525;-66
2022/10/20 05:38:24;;;;;;;7.90;4.32;;;;;;;10.98;100.00;100190.22;5115038;28;20039;-66
2022/10/20 05:40:49;;;;;;;6.95;3.83;;;;;;;10.99;100.00;100190.06;5114617;28;20074;-67
2022/10/20 05:43:15;;;;;;;9.05;4.20;;;;;;;11.00;100.00;100199.69;5114806;28;20162;-66
2022/10/20 05:45:40;;;;;;;7.30;3.85;;;;;;;10.92;100.00;100197.09;5114671;28;20400;-66
2022/10/20 05:48:06;;;;;;;8.45;3.72;;;;;;;10.90;100.00;100193.78;5114704;28;20377;-66
2022/10/20 05:50:32;;;;;;;6.85;4.15;;;;;;;10.93;100.00;100193.41;5114309;28;20122;-66
2022/10/20 05:52:57;;;;;;;7.85;4.18;;;;;;;10.91;100.00;100191.94;5114729;28;20138;-67
2022/10/20 05:55:23;;;;;;;4.35;3.53;;;;;;;10.86;100.00;100193.28;5113014;28;20532;-66
2022/10/20 05:57:49;;;;;;;6.97;3.83;;;;;;;10.84;100.00;100210.47;5114547;28;20345;-66
2022/10/20 06:00:17;;;;;;;7.50;3.83;;;;;;;10.83;100.00;100220.31;5114263;28;20044;-67
2022/10/20 06:02:42;;;;;;;6.95;3.85;;;;;;;10.77;100.00;100225.50;5114498;28;20035;-66
2022/10/20 06:05:08;;;;;;;11.85;3.90;;;;;;;10.77;100.00;100236.16;5114492;28;20175;-66
2022/10/20 06:07:33;;;;;;;6.90;3.97;;;;;;;10.72;100.00;100225.19;5114337;28;20031;-66
2022/10/20 06:09:59;;;;;;;6.72;3.50;;;;;;;10.64;100.00;100226.06;5114192;28;20044;-66
2022/10/20 06:12:24;;;;;;;7.15;4.35;;;;;;;10.60;100.00;100228.25;5113975;28;20123;-66
2022/10/20 06:14:49;;;;;;;5.90;3.70;;;;;;;10.62;100.00;100230.72;5114377;28;20092;-66
2022/10/20 06:17:15;;;;;;;7.97;3.80;;;;;;;10.68;100.00;100231.88;5114030;28;20035;-66
2022/10/20 06:19:40;;;;;;;6.05;3.97;;;;;;;10.73;100.00;100234.84;5114179;28;20039;-66
2022/10/20 06:22:06;;;;;;;7.55;4.40;;;;;;;10.64;100.00;100246.56;5113913;28;20062;-66
2022/10/20 06:24:31;;;;;;;8.70;3.85;;;;;;;10.69;100.00;100270.81;5113983;28;20471;-58
2022/10/20 06:26:57;;;;;;;7.25;4.30;;;;;;;10.69;100.00;100250.34;5114012;28;20705;-59
2022/10/20 06:29:22;;;;;;;6.30;4.03;;;;;;;10.73;100.00;100246.34;5113957;28;20035;-58
2022/10/20 06:31:50;;;;;;;7.28;4.10;;;;;;;10.73;100.00;100262.31;5113543;28;20501;-60
2022/10/20 06:34:18;;;;;;;6.57;4.30;;;;;;;10.82;100.00;100255.09;5113818;28;20583;-61
2022/10/20 06:36:45;;;;;;;6.72;3.72;;;;;;;10.85;100.00;100257.44;5113779;28;20403;-58
2022/10/20 06:39:13;;;;;;;7.05;4.20;;;;;;;10.90;100.00;100265.75;5113699;28;20073;-57
2022/10/20 06:41:38;;;;;;;6.22;3.97;;;;;;;10.93;100.00;100259.22;5113330;28;20039;-56
2022/10/20 06:44:04;;;;;;;7.05;4.40;;;;;;;10.98;100.00;100251.53;5113077;28;20039;-57
2022/10/20 06:46:32;;;;;;;10.20;4.35;;;;;;;11.02;100.00;100253.69;5113295;28;20042;-67
2022/10/20 06:49:02;;;;;;;9.50;4.28;;;;;;;10.99;100.00;100264.69;5113868;28;20396;-68
2022/10/20 06:51:28;;;;;;;7.22;4.40;;;;;;;11.02;100.00;100267.00;5113133;28;20035;-67
2022/10/20 06:53:54;;;;;;;6.25;4.53;;;;;;;11.10;100.00;100268.78;5113590;28;20036;-67
2022/10/20 06:56:22;;;;;;;8.48;4.25;;;;;;;11.11;100.00;100268.59;5113529;28;20053;-68
2022/10/20 06:58:49;;;;;;;8.38;3.55;;;;;;;11.14;100.00;100278.06;5113508;28;20058;-68
2022/10/20 07:01:22;;;;;;;7.53;4.40;;;;;;;11.13;100.00;100279.91;5113015;28;20032;-67
2022/10/20 07:03:49;;;;;;;7.18;4.55;;;;;;;11.17;100.00;100269.75;5113391;28;20126;-67
2022/10/20 07:06:17;;;;;;;6.38;4.30;;;;;;;11.18;100.00;100265.25;5113284;28;20338;-67
2022/10/20 07:08:43;;;;;;;7.63;4.43;;;;;;;11.22;100.00;100266.56;5113285;28;20040;-67
2022/10/20 07:11:12;;;;;;;9.63;4.50;;;;;;;11.23;100.00;100273.53;5113022;28;20055;-67
2022/10/20 07:13:38;;;;;;;11.95;5.47;;;;;;;11.22;100.00;100261.22;5113236;28;20039;-67
2022/10/20 07:16:05;;;;;;;10.45;4.75;;;;;;;11.29;100.00;100262.19;5113073;28;20127;-68
2022/10/20 07:18:31;;;;;;;10.60;4.55;;;;;;;11.36;100.00;100265.78;5113200;28;20059;-67
2022/10/20 07:21:08;;;;;;;10.43;4.88;;;;;;;11.43;100.00;100253.41;5112639;28;20523;-68
2022/10/20 07:23:35;;;;;;;7.63;4.47;;;;;;;11.52;100.00;100246.16;5113082;27;20040;-67
2022/10/20 07:26:09;;;;;;;8.23;4.05;;;;;;;11.57;100.00;100244.59;5112962;28;20050;-68
2022/10/20 07:28:35;;;;;;;6.78;4.15;;;;;;;11.65;100.00;100247.19;5112914;28;20047;-68
2022/10/20 07:31:03;;;;;;;7.20;3.72;;;;;;;11.72;100.00;100249.16;5112559;28;20031;-68
2022/10/20 07:33:28;;;;;;;;;;;;;;;11.67;100.00;100250.53;5113326;28;20043;-67
2022/10/20 07:35:54;;;;;;;7.45;3.75;;;;;;;11.75;100.00;100254.13;5112753;28;20638;-67
2022/10/20 07:38:19;;;;;;;7.70;4.57;;;;;;;11.78;100.00;100251.91;5112694;28;20058;-67
2022/10/20 07:40:44;;;;;;;5.20;3.72;;;;;;;11.81;100.00;100261.47;5112438;28;20508;-67
2022/10/20 07:43:10;;;;;;;7.63;4.82;;;;;;;11.85;100.00;100260.06;5112707;28;20123;-68
2022/10/20 07:45:35;;;;;;;7.85;4.65;;;;;;;11.84;100.00;100256.56;5112557;28;20043;-68
2022/10/20 07:48:03;;;;;;;8.32;4.80;;;;;;;11.91;100.00;100267.34;5112501;28;20122;-68
2022/10/20 07:50:28;;;;;;;6.72;4.55;;;;;;;11.96;100.00;100270.31;5112316;28;20172;-68
2022/10/20 07:52:54;;;;;;;11.68;5.30;;;;;;;12.01;100.00;100273.28;5111246;28;20512;-68
2022/10/20 07:55:20;;;;;;;9.05;4.82;;;;;;;12.05;100.00;100277.22;5112195;28;20039;-68
2022/10/20 07:57:46;;;;;;;7.18;4.07;;;;;;;12.12;100.00;100261.31;5112379;28;20038;-68
2022/10/20 08:00:12;;;;;;;7.38;4.35;;;;;;;12.19;100.00;100243.53;5112269;28;20526;-68
2022/10/20 08:02:39;;;;;;;7.15;4.38;;;;;;;12.26;100.00;100239.13;5112629;28;20043;-68
2022/10/20 08:05:06;;;;;;;9.55;4.72;;;;;;;12.28;100.00;100252.31;5112377;28;20078;-68
2022/10/20 08:07:32;;;;;;;5.78;4.15;;;;;;;12.34;100.00;100256.91;5112242;28;20039;-68
2022/10/20 08:09:57;;;;;;;9.02;4.68;;;;;;;12.41;100.00;100255.16;5111051;28;20090;-68
2022/10/20 08:12:23;;;;;;;8.73;4.40;;;;;;;12.48;100.00;100256.91;5112024;28;20063;-68
2022/10/20 08:14:48;;;;;;;6.25;4.38;;;;;;;12.57;100.00;100262.13;5112188;28;20399;-68
2022/10/20 08:17:13;;;;;;;6.53;4.15;;;;;;;12.66;100.00;100259.19;5111996;28;20039;-68
2022/10/20 08:19:39;;;;;;;7.00;4.22;;;;;;;12.68;100.00;100254.47;5112384;28;20044;-68
2022/10/20 08:22:04;;;;;;;6.57;3.90;;;;;;;12.79;100.00;100266.53;5111943;28;20036;-67
2022/10/20 08:24:30;;;;;;;6.90;4.03;;;;;;;12.82;100.00;100257.31;5112020;28;20071;-68
2022/10/20 08:26:55;;;;;;;5.68;4.30;;;;;;;12.94;100.00;100270.00;5112061;28;20050;-68
2022/10/20 08:29:21;;;;;;;9.07;3.85;;;;;;;13.01;100.00;100259.38;5111972;28;20454;-68
2022/10/20 08:31:46;;;;;;;8.18;4.55;;;;;;;13.10;100.00;100270.78;5111604;28;20123;-68
2022/10/20 08:34:12;;;;;;;6.72;4.55;;;;;;;13.19;100.00;100267.00;5112105;28;20119;-68
2022/10/20 08:36:37;;;;;;;4.97;3.95;;;;;;;13.25;100.00;100274.28;5111908;28;20476;-68
2022/10/20 08:39:03;;;;;;;6.03;4.28;;;;;;;13.48;100.00;100295.50;5112024;28;20043;-68
2022/10/20 08:41:32;;;;;;;7.35;4.38;;;;;;;13.60;100.00;100301.19;5111594;28;20028;-68
2022/10/20 08:44:00;;;;;;;6.80;4.38;;;;;;;13.70;100.00;100318.59;5111904;28;20031;-68
2022/10/20 08:46:31;;;;;;;;;;;;;;;13.78;100.00;100326.47;5112227;28;20461;-68
2022/10/20 08:48:56;;;;;;;6.38;3.47;;;;;;;13.83;100.00;100324.06;5111869;28;19916;-68
2022/10/20 08:51:25;;;;;;;6.45;4.18;;;;;;;13.91;100.00;100325.78;5111551;28;20042;-68
2022/10/20 08:53:54;;;;;;;5.57;4.47;;;;;;;13.98;100.00;100320.47;5111893;28;20484;-68
2022/10/20 08:56:23;;;;;;;9.15;3.85;;;;;;;14.07;100.00;100324.66;5111732;28;20043;-69
2022/10/20 08:58:48;;;;;;;7.25;4.25;;;;;;;14.28;100.00;100321.09;5111717;28;20039;-69
2022/10/20 09:01:19;;;;;;;6.75;4.53;;;;;;;14.23;100.00;100311.00;5111489;28;20028;-69
2022/10/20 09:03:48;;;;;;;6.90;3.97;;;;;;;14.31;100.00;100316.19;5111863;28;20032;-69
2022/10/20 09:06:15;;;;;;;7.80;4.00;;;;;;;14.46;100.00;100324.16;5110595;28;20071;-68
2022/10/20 09:08:42;;;;;;;9.17;4.90;;;;;;;14.57;100.00;100323.59;5113968;28;20059;-68
2022/10/20 09:11:14;;;;;;;11.15;4.53;;;;;;;14.53;100.00;100319.66;5115139;28;20297;-68
2022/10/20 09:13:40;;;;;;;8.50;4.47;;;;;;;14.62;100.00;100314.97;5115571;28;20067;-68
2022/10/20 09:16:11;;;;;;;7.28;4.03;;;;;;;14.56;100.00;100313.09;5115503;28;20066;-69
2022/10/20 09:18:37;;;;;;;7.57;4.32;;;;;;;14.34;100.00;100318.50;5115597;28;20039;-68
2022/10/20 09:21:20;;;;;;;8.07;3.97;;;;;;;14.36;100.00;100308.41;5115104;28;20035;-69
2022/10/20 09:23:51;;;;;;;6.28;4.03;;;;;;;14.18;100.00;100312.59;5115486;28;20529;-68
2022/10/20 09:26:42;;;;;;;6.60;4.20;;;;;;;14.11;100.00;100317.91;5115267;28;20039;-68
2022/10/20 09:29:07;;;;;;;6.60;4.05;;;;;;;14.02;100.00;100316.41;5112446;28;20048;-68
2022/10/20 09:31:36;;;;;;;6.65;4.38;;;;;;;13.95;100.00;100321.66;5114862;28;20501;-68
2022/10/20 09:34:23;;;;;;;8.60;4.80;;;;;;;13.88;100.00;100307.41;5115127;28;20039;-68
2022/10/20 09:36:52;;;;;;;7.53;4.50;;;;;;;13.88;100.00;100306.56;5115219;28;20035;-68
2022/10/20 09:39:21;;;;;;;8.50;4.82;;;;;;;13.81;100.00;100302.00;5115085;28;20048;-68
2022/10/20 09:41:48;;;;;;;9.50;4.55;;;;;;;13.91;100.00;100308.88;5114681;28;20390;-68
2022/10/20 09:44:24;;;;;;;7.43;3.90;;;;;;;13.88;100.00;100311.94;5114956;28;20126;-68
2022/10/20 09:46:52;;;;;;;7.10;4.63;;;;;;;13.92;100.00;100308.69;5114979;28;20039;-68
2022/10/20 09:49:28;;;;;;;;;;;;;;;13.91;100.00;100290.97;5115333;28;20344;-69
2022/10/20 09:51:54;;;;;;;6.55;4.43;;;;;;;14.01;100.00;100304.00;5114442;28;19976;-69
2022/10/20 09:54:23;;;;;;;7.20;4.25;;;;;;;14.04;100.00;100307.13;5114837;28;20118;-69
2022/10/20 09:56:51;;;;;;;6.95;4.57;;;;;;;14.18;100.00;100304.56;5114623;28;20038;-69
2022/10/20 09:59:25;;;;;;;6.85;4.35;;;;;;;14.25;100.00;100308.94;5114591;28;20039;-68
2022/10/20 10:02:01;;;;;;;7.65;4.45;;;;;;;14.32;100.00;100304.44;5114671;28;20388;-68
2022/10/20 10:04:39;;;;;;;7.50;3.87;;;;;;;14.39;100.00;100310.66;5114650;28;20096;-68
2022/10/20 10:07:24;;;;;;;6.85;4.40;;;;;;;14.50;100.00;100303.97;5114545;28;20292;-68
2022/10/20 10:10:05;;;;;;;5.60;4.45;;;;;;;14.54;100.00;100291.00;5114375;28;20123;-68
2022/10/20 10:12:31;;;;;;;6.38;4.43;;;;;;;14.62;100.00;100294.34;5114385;28;20040;-68
2022/10/20 10:15:00;;;;;;;9.68;4.50;;;;;;;14.72;100.00;100296.66;5114298;28;20395;-69
2022/10/20 10:17:38;;;;;;;5.82;3.63;;;;;;;14.80;100.00;100291.16;5114258;28;20035;-68
2022/10/20 10:20:35;;;;;;;8.45;5.07;;;;;;;14.79;100.00;100292.16;5113949;28;20038;-68
2022/10/20 10:23:17;;;;;;;8.13;4.57;;;;;;;14.81;100.00;100279.41;5111895;28;20048;-68
2022/10/20 10:25:43;;;;;;;6.05;4.00;;;;;;;14.69;100.00;100264.91;5114094;28;20031;-68
2022/10/20 10:28:29;;;;;;;6.45;4.78;;;;;;;14.57;100.00;100266.47;5114150;28;20096;-68
2022/10/20 10:31:19;;;;;;;9.35;5.00;;;;;;;14.53;100.00;100255.31;5113679;28;20034;-68
2022/10/20 10:33:45;;;;;;;7.88;4.10;;;;;;;14.44;100.00;100261.03;5113180;28;20047;-68
2022/10/20 10:36:24;;;;;;;6.57;3.65;;;;;;;14.47;100.00;100257.97;5113750;28;20040;-68
2022/10/20 10:38:49;;;;;;;6.32;4.57;;;;;;;14.46;100.00;100275.03;5114072;28;20044;-67
2022/10/20 10:41:33;;;;;;;6.53;3.95;;;;;;;14.48;100.00;100297.16;5113745;28;20055;-68
2022/10/20 10:44:11;;;;;;;7.47;4.63;;;;;;;14.40;100.00;100298.09;5113866;28;20473;-67
2022/10/20 10:46:42;;;;;;;8.13;4.70;;;;;;;14.31;100.00;100310.00;5113686;28;20027;-67
2022/10/20 10:49:59;;;;;;;6.53;4.25;;;;;;;14.32;100.00;100296.41;5112458;28;20054;-68
2022/10/20 10:52:32;;;;;;;6.18;3.72;;;;;;;14.37;100.00;100285.09;5086283;28;20146;-67
2022/10/20 10:55:16;;;;;;;7.63;4.80;;;;;;;14.42;100.00;100271.13;5064593;28;20037;-67
2022/10/20 10:58:00;;;;;;;8.00;4.55;;;;;;;14.50;100.00;100245.00;5085136;28;20044;-67
2022/10/20 11:01:00;;;;;;;6.60;4.43;;;;;;;14.58;100.00;100236.78;5092811;28;20067;-67
2022/10/20 11:04:05;;;;;;;7.47;4.75;;;;;;;14.64;100.00;100244.03;5093111;28;20039;-66
2022/10/20 11:07:02;;;;;;;11.77;4.72;;;;;;;14.53;100.00;100246.47;5081603;28;20142;-67
2022/10/20 11:09:46;;;;;;;8.65;5.07;;;;;;;14.56;100.00;100214.72;5092943;28;20046;-67
2022/10/20 11:12:33;;;;;;;6.80;4.50;;;;;;;14.51;100.00;100229.75;5092486;28;20031;-66
2022/10/20 11:15:16;;;;;;;8.87;4.93;;;;;;;14.52;100.00;100234.09;5092976;28;20353;-67
2022/10/20 11:17:47;;;;;;;7.97;4.55;;;;;;;14.59;100.00;100242.97;5092732;28;20036;-67
2022/10/20 11:20:31;;;;;;;6.68;4.13;;;;;;;14.64;100.00;100225.28;5092548;28;20028;-67
2022/10/20 11:23:00;;;;;;;6.22;4.03;;;;;;;14.65;100.00;100223.41;5092921;28;20408;-67
2022/10/20 11:25:34;;;;;;;7.75;4.38;;;;;;;14.60;100.00;100233.91;5092691;28;20040;-67
2022/10/20 11:28:00;;;;;;;6.78;4.25;;;;;;;14.70;100.00;100236.22;5092779;28;20503;-67
2022/10/20 11:30:27;;;;;;;6.32;4.13;;;;;;;14.75;100.00;100248.00;5091750;28;20032;-67
2022/10/20 11:32:55;;;;;;;6.15;3.90;;;;;;;14.78;100.00;100252.97;5092569;28;20470;-66
2022/10/20 11:35:58;;;;;;;6.78;4.32;;;;;;;14.79;100.00;100246.56;5092533;28;20508;-67
2022/10/20 11:38:33;;;;;;;5.97;3.70;;;;;;;14.78;100.00;100239.56;5092436;28;20035;-67
2022/10/20 11:41:11;;;;;;;5.45;3.83;;;;;;;14.79;100.00;100238.53;5092107;28;20031;-66
2022/10/20 11:43:46;;;;;;;;;;;;;;;14.71;100.00;100241.38;5092805;28;20035;-67
2022/10/20 11:46:16;;;;;;;6.55;4.15;;;;;;;14.74;100.00;100245.53;5101609;28;19957;-68
2022/10/20 11:48:46;;;;;;;4.55;3.17;;;;;;;14.73;100.00;100242.00;5112764;28;20050;-67
2022/10/20 11:51:14;;;;;;;7.05;3.88;;;;;;;14.72;100.00;100223.44;5112281;28;20114;-67
2022/10/20 11:53:58;;;;;;;8.50;4.00;;;;;;;14.69;100.00;100208.59;5112508;28;20035;-67
2022/10/20 11:57:04;;;;;;;5.22;3.55;;;;;;;14.59;100.00;100224.22;5112631;28;20062;-66
2022/10/20 12:00:03;;;;;;;6.72;3.53;;;;;;;14.67;100.00;100210.66;5111059;28;20035;-67
2022/10/20 12:03:18;;;;;;;6.38;3.78;;;;;;;14.79;100.00;100216.25;5112453;28;20076;-66
2022/10/20 12:06:18;;;;;;;7.43;4.13;;;;;;;14.86;100.00;100225.97;5107336;28;20051;-67
2022/10/20 12:09:04;;;;;;;5.88;3.72;;;;;;;14.79;100.00;100221.59;5112429;28;20038;-66
2022/10/20 12:11:59;;;;;;;8.82;4.82;;;;;;;14.84;100.00;100211.13;5110919;28;20036;-66
2022/10/20 12:14:32;;;;;;;9.43;4.38;;;;;;;14.79;100.00;100206.34;5108878;28;20051;-67
2022/10/20 12:17:11;;;;;;;5.82;3.88;;;;;;;14.86;100.00;100196.47;5112266;28;20451;-67
2022/10/20 12:19:37;;;;;;;6.55;4.30;;;;;;;14.76;100.00;100195.22;5112260;28;20127;-68
2022/10/20 12:22:14;;;;;;;6.72;4.47;;;;;;;14.87;100.00;100200.00;5111731;28;20067;-67
2022/10/20 12:24:49;;;;;;;;;;;;;;;14.95;100.00;100198.97;5112728;28;20438;-67
2022/10/20 12:27:18;;;;;;;6.15;4.15;;;;;;;15.00;100.00;100185.78;5112042;28;19923;-68
2022/10/20 12:29:47;;;;;;;4.65;3.55;;;;;;;14.97;100.00;100192.38;5112148;28;20505;-67
2022/10/20 12:32:20;;;;;;;6.47;4.00;;;;;;;15.06;100.00;100190.31;5111773;28;20078;-67
2022/10/20 12:34:47;;;;;;;6.47;3.28;;;;;;;15.11;100.00;100182.50;5112036;28;20031;-67
2022/10/20 12:37:17;;;;;;;7.20;3.55;;;;;;;15.08;100.00;100180.22;5111971;28;20106;-68
2022/10/20 12:39:44;;;;;;;5.22;3.35;;;;;;;15.08;100.00;100177.56;5112092;28;20397;-67
2022/10/20 12:42:20;;;;;;;6.43;3.37;;;;;;;15.14;100.00;100179.41;5111682;28;20032;-67
2022/10/20 12:44:47;;;;;;;5.70;3.60;;;;;;;15.18;100.00;100173.41;5116094;28;20273;-69
2022/10/20 12:47:24;;;;;;;4.53;3.22;;;;;;;15.25;100.00;100160.00;5116109;28;20069;-69
2022/10/20 12:49:57;;;;;;;3.83;3.08;;;;;;;15.36;100.00;100147.84;5115911;28;20580;-68
2022/10/20 12:52:27;;;;;;;6.88;3.80;;;;;;;15.38;100.00;100124.28;5115981;28;20499;-73
2022/10/20 12:55:01;;;;;;;5.30;3.70;;;;;;;15.33;100.00;100116.06;5116148;28;20023;-68
2022/10/20 12:57:36;;;;;;;6.43;3.95;;;;;;;15.43;100.00;100128.00;5115932;28;20180;-68
2022/10/20 13:00:25;;;;;;;6.38;3.75;;;;;;;15.45;100.00;100136.72;5115844;28;20035;-68
2022/10/20 13:02:55;;;;;;;7.20;3.75;;;;;;;15.46;100.00;100122.25;5115539;28;20195;-68
2022/10/20 13:05:25;;;;;;;4.40;3.40;;;;;;;15.45;100.00;100123.28;5115704;28;20032;-69
2022/10/20 13:07:55;;;;;;;5.93;3.40;;;;;;;15.45;100.00;100130.47;5115670;28;20035;-69
2022/10/20 13:10:30;;;;;;;5.55;3.60;;;;;;;15.53;100.00;100141.03;5115219;28;20509;-69
2022/10/20 13:12:55;;;;;;;10.38;4.40;;;;;;;15.53;100.00;100148.25;5115535;28;20389;-68
2022/10/20 13:15:24;;;;;;;5.68;3.53;;;;;;;15.55;100.00;100148.88;5115581;28;20035;-68
2022/10/20 13:17:56;;;;;;;4.95;3.58;;;;;;;15.58;100.00;100156.50;5115445;28;20042;-68
2022/10/20 13:20:51;;;;;;;7.00;3.97;;;;;;;15.62;100.00;100153.22;5115094;28;20543;-68
2022/10/20 13:23:24;;;;;;;5.85;3.53;;;;;;;15.66;100.00;100150.97;5113051;28;20055;-68
2022/10/20 13:25:56;;;;;;;5.43;3.63;;;;;;;15.65;100.00;100154.69;5115347;28;20055;-68
2022/10/20 13:28:27;;;;;;;5.40;3.53;;;;;;;15.69;100.00;100158.59;5115441;28;20035;-68
2022/10/20 13:31:00;;;;;;;6.97;3.83;;;;;;;15.69;100.00;100154.03;5114742;28;20039;-68
2022/10/20 13:34:14;;;;;;;6.43;3.60;;;;;;;15.74;100.00;100158.78;5115176;28;20046;-68
2022/10/20 13:36:52;;;;;;;6.00;4.10;;;;;;;15.76;100.00;100158.56;5092380;28;20036;-68
2022/10/20 13:39:32;;;;;;;8.15;4.53;;;;;;;15.76;100.00;100162.09;5092264;28;20040;-69
2022/10/20 13:42:27;;;;;;;5.65;4.07;;;;;;;15.77;100.00;100158.34;5114174;28;20035;-69
2022/10/20 13:45:23;;;;;;;5.78;3.72;;;;;;;15.78;100.00;100169.94;5115079;28;20480;-70
2022/10/20 13:47:55;;;;;;;6.55;3.92;;;;;;;15.82;100.00;100171.16;5114859;28;20442;-67
2022/10/20 13:50:21;;;;;;;8.27;3.70;;;;;;;15.82;100.00;100169.31;5114425;28;20047;-69
2022/10/20 13:52:53;;;;;;;3.97;3.27;;;;;;;15.82;100.00;100163.13;5114701;28;20150;-69
2022/10/20 13:55:25;;;;;;;5.82;3.53;;;;;;;15.82;100.00;100147.81;5114160;28;20277;-69
2022/10/20 13:57:54;;;;;;;5.05;3.10;;;;;;;15.84;100.00;100145.75;5114708;28;20066;-70
2022/10/20 14:00:29;;;;;;;5.47;3.05;;;;;;;15.88;100.00;100148.84;5114458;28;20031;-69
2022/10/20 14:03:02;;;;;;;5.25;3.55;;;;;;;15.92;100.00;100155.47;5114692;28;20050;-69
2022/10/20 14:05:35;;;;;;;4.95;3.50;;;;;;;15.94;100.00;100154.19;5114736;28;20039;-69
2022/10/20 14:08:01;;;;;;;5.68;3.25;;;;;;;15.94;100.00;100151.50;5114524;27;20058;-69
2022/10/20 14:11:03;;;;;;;4.38;3.10;;;;;;;15.98;100.00;100142.00;5114182;27;20480;-69
2022/10/20 14:13:34;;;;;;;4.05;3.38;;;;;;;15.99;100.00;100142.84;5114371;28;20035;-69
2022/10/20 14:16:03;;;;;;;4.03;2.63;;;;;;;15.97;100.00;100137.69;5114337;28;20084;-69
2022/10/20 14:18:37;;;;;;;5.28;2.90;;;;;;;16.00;100.00;100145.31;5114360;28;20032;-69
2022/10/20 14:21:04;;;;;;;4.25;3.17;;;;;;;15.99;100.00;100137.47;5113915;28;20100;-69
2022/10/20 14:23:36;;;;;;;5.93;3.80;;;;;;;16.01;100.00;100136.19;5114285;28;20035;-69
2022/10/20 14:26:06;;;;;;;5.60;3.22;;;;;;;16.00;100.00;100129.19;5114012;28;20119;-69
2022/10/20 14:28:35;;;;;;;4.95;3.35;;;;;;;15.98;100.00;100128.59;5114224;28;20082;-70
2022/10/20 14:31:01;;;;;;;4.43;3.05;;;;;;;16.01;100.00;100130.84;5113785;28;20126;-69
2022/10/20 14:33:29;;;;;;;3.35;2.90;;;;;;;16.01;100.00;100127.31;5114126;28;20023;-69
2022/10/20 14:35:58;;;;;;;4.75;3.30;;;;;;;15.98;100.00;100117.00;5113837;28;20050;-69
2022/10/20 14:38:36;;;;;;;5.25;3.30;;;;;;;15.98;100.00;100114.31;5113899;28;20054;-69
2022/10/20 14:41:04;;;;;;;4.72;3.13;;;;;;;15.97;100.00;100108.13;5113693;28;20438;-69
2022/10/20 14:43:38;;;;;;;5.90;3.05;;;;;;;15.95;100.00;100096.75;5113825;28;20047;-69
2022/10/20 14:46:05;;;;;;;6.75;3.35;;;;;;;15.90;100.00;100107.31;5113756;28;20083;-69
2022/10/20 14:48:38;;;;;;;5.10;3.20;;;;;;;15.94;100.00;100108.53;5113654;28;20457;-69
2022/10/20 14:51:39;;;;;;;5.05;3.55;;;;;;;15.97;100.00;100091.16;5113299;28;20071;-69
2022/10/20 14:54:25;;;;;;;6.32;3.25;;;;;;;15.98;100.00;100087.47;5113583;28;20080;-69
2022/10/20 14:56:57;;;;;;;4.22;3.10;;;;;;;15.94;100.00;100088.91;5113471;28;20039;-69
2022/10/20 14:59:31;;;;;;;6.05;3.90;;;;;;;15.93;100.00;100084.59;5113532;28;20044;-69
2022/10/20 15:02:11;;;;;;;4.93;3.33;;;;;;;15.94;100.00;100083.53;5113046;28;20468;-69
2022/10/20 15:04:42;;;;;;;5.75;3.70;;;;;;;15.93;100.00;100101.53;5113459;27;20385;-68
2022/10/20 15:07:27;;;;;;;4.95;3.42;;;;;;;15.88;100.00;100097.81;5112567;28;20042;-69
2022/10/20 15:09:56;;;;;;;5.57;3.70;;;;;;;15.85;100.00;100087.50;5113355;28;20115;-69
2022/10/20 15:12:43;;;;;;;5.05;3.42;;;;;;;15.82;100.00;100099.47;5112840;28;20042;-69
2022/10/20 15:15:09;;;;;;;4.93;2.97;;;;;;;15.81;100.00;100094.31;5113055;28;20111;-69
2022/10/20 15:17:42;;;;;;;4.88;3.25;;;;;;;15.77;100.00;100109.19;5113140;28;20142;-68
2022/10/20 15:20:41;;;;;;;4.32;2.95;;;;;;;15.73;100.00;100109.63;5113138;28;20050;-69
2022/10/20 15:23:19;;;;;;;6.82;3.13;;;;;;;15.76;100.00;100103.00;5089669;28;20128;-69
2022/10/20 15:25:56;;;;;;;;;;;;;;;15.74;100.00;100110.47;5113284;28;20035;-69
2022/10/20 15:28:34;;;;;;;4.22;2.97;;;;;;;15.72;100.00;100109.84;5111603;28;19919;-69
2022/10/20 15:31:00;;;;;;;;;;;;;;;15.70;100.00;100114.59;5112999;28;20031;-68
2022/10/20 15:33:26;;;;;;;4.28;3.17;;;;;;;15.69;100.00;100127.19;5112748;28;20385;-68
2022/10/20 15:35:52;;;;;;;9.73;3.83;;;;;;;15.68;100.00;100130.09;5112723;28;20062;-69
2022/10/20 15:38:18;;;;;;;8.05;4.40;;;;;;;15.64;100.00;100142.28;5112741;28;20058;-69
2022/10/20 15:40:44;;;;;;;4.00;3.40;;;;;;;15.65;100.00;100142.09;5112383;27;20078;-69
2022/10/20 15:43:15;;;;;;;8.10;3.92;;;;;;;15.65;100.00;100141.25;5112470;28;20039;-69
2022/10/20 15:45:44;;;;;;;6.05;4.05;;;;;;;15.61;100.00;100130.06;5112500;27;20079;-69
2022/10/20 15:48:10;;;;;;;5.05;3.35;;;;;;;15.64;100.00;100107.38;5112590;28;20031;-69
2022/10/20 15:50:37;;;;;;;10.25;4.13;;;;;;;15.61;100.00;100076.38;5112130;28;20402;-69
2022/10/20 15:53:03;;;;;;;5.70;3.22;;;;;;;15.52;100.00;100060.69;5112442;27;20123;-69
2022/10/20 15:55:34;;;;;;;7.75;3.20;;;;;;;15.48;100.00;100061.13;5112430;28;20162;-70
2022/10/20 15:58:00;;;;;;;7.18;4.15;;;;;;;15.47;100.00;100072.91;5112528;28;20040;-70
2022/10/20 16:00:27;;;;;;;12.05;6.05;;;;;;;15.40;100.00;100074.75;5112165;28;20039;-70
2022/10/20 16:02:53;;;;;;;6.53;3.70;;;;;;;15.37;100.00;100090.44;5112271;28;20039;-69